Huvudsida
METAR-TAF:

METAR-TAF

Flygplatser :

Sundsvall Timrå Airport

Sundsvall-Härnösand, Sverige

latitud: 62-32N, longitud: 017-27E, höjd: 4 m

Aktuellt väderrapport

Denna rapport gjordes för 34 minuter sedan, klockan 14:20 UTC
Vind 12 kt från sydost
Temperatur 18°C
Fuktighet 39%
Tryck 1021 hPa
Sikt 10 km eller mer
Inga moln under 1 500 m eller inga cumulonimbus

METAR: ESNN 231420Z 14012KT CAVOK 18/04 Q1021

Tid: 16:54 (14:54 UTC)

Väderprognos

Denna rapport gjordes för 24 minuter sedan, klockan 14:30 UTC
Prognos gäller från 23 kl. 15 UTC till 23 kl. 20 UTC
Vind 10 kt från sydost
Sikt 10 km eller mer
Inga moln under 1 500 m eller inga cumulonimbus

TAF: ESNN 231430Z 2315/2320 14010KT CAVOK

Aktuella väderrapporter och prognoser från 4000 flygplatser (METAR- och TAF-rapporter).

De tillgängliga stationerna syns som gula och röda prickar på kartan.

För musen över prickarna för att se namnen på stationerna.

Klicka sedan för att få väderrapporter och prognoser.

För att ändra kartan: Klicka på de gröna knapparna med ett svart kors på för att zooma in; den gröna knappen med ett streck på för att zooma ut; eller på de gröna pilarna för angränsande kartor.


METAR-TAF: